This is the latest recevied weather packets stored in our database for station/object EA5JZL-10. If no packets are shown the sender has not sent any weather packets the latest 10 day(s).
| Time | Temp. | Humidity | Pressure | Rain* | Wind** | Luminosity | Snow |
|---|---|---|---|---|---|---|---|
| 1777420276 | 22.78° C | 53% | 1012.1 hPa | - | - | - | - |
| 1777418475 | 23.33° C | 53% | 1012.1 hPa | - | - | - | - |
| 1777416675 | 23.33° C | 53% | 1012.1 hPa | - | - | - | - |
| 1777414875 | 23.33° C | 53% | 1012.4 hPa | - | - | - | - |
| 1777413075 | 23.89° C | 50% | 1012.2 hPa | - | - | - | - |
| 1777411275 | 21.67° C | 56% | 1012.2 hPa | - | - | - | - |
| 1777409475 | 21.67° C | 57% | 1012.2 hPa | - | - | - | - |
| 1777407674 | 22.22° C | 54% | 1012.1 hPa | - | - | - | - |
| 1777405874 | 21.67° C | 56% | 1011.8 hPa | - | - | - | - |
| 1777404074 | 22.22° C | 55% | 1011.4 hPa | - | - | - | - |
| 1777402274 | 22.22° C | 55% | 1011 hPa | - | - | - | - |
| 1777400474 | 21.11° C | 55% | 1010.7 hPa | - | - | - | - |
| 1777398674 | 21.67° C | 55% | 1010.1 hPa | - | - | - | - |
| 1777396873 | 21.67° C | 54% | 1010.4 hPa | - | - | - | - |
| 1777395073 | 22.22° C | 52% | 1010.4 hPa | - | - | - | - |
| 1777393273 | 23.33° C | 49% | 1010.7 hPa | - | - | - | - |
| 1777391473 | 23.89° C | 49% | 1010.8 hPa | - | - | - | - |
| 1777389673 | 23.89° C | 49% | 1011.3 hPa | - | - | - | - |
| 1777387873 | 22.78° C | 50% | 1011.6 hPa | - | - | - | - |
| 1777386072 | 22.78° C | 49% | 1012.1 hPa | - | - | - | - |
| 1777384272 | 22.78° C | 49% | 1012.6 hPa | - | - | - | - |
| 1777382472 | 21.11° C | 52% | 1012.9 hPa | - | - | - | - |
| 1777380672 | 21.67° C | 50% | 1012.9 hPa | - | - | - | - |
| 1777378872 | 21.67° C | 53% | 1013.1 hPa | - | - | - | - |
| 1777377072 | 21.11° C | 54% | 1013.6 hPa | - | - | - | - |
* Rain since midnight (hover to see other rain measurements)
** Current wind speed in m/s (hover to see current wind gust speed)